Time;durP1;ratioP1;P1;durP2;ratioP2;P2;SDS_P1;SDS_P2;PMS_P1;PMS_P2;Temp;Humidity;BMP_temperature;BMP_pressure;BME280_temperature;BME280_humidity;BME280_pressure;Samples;Min_cycle;Max_cycle;Signal;HPM_P1;HPM_P2
2024/04/12 16:59:34;;;;;;;;;;;;;;;;;;5196639;27;20249;-86
2024/04/12 17:01:59;;;;;;;;;;;;;;;;;;5178167;27;19936;-85
2024/04/12 17:04:24;;;;;;;;;;;;;;;;;;5181728;27;20000;-85
2024/04/12 17:06:50;;;;;;;;;;;;;;;;;;5181730;27;19936;-87
2024/04/12 17:09:19;;;;;;;;;;;;;;;;;;5182377;27;20252;-87
2024/04/12 17:11:44;;;;;;;;;;;;;;;;;;5181072;27;20457;-86
2024/04/12 17:14:10;;;;;;;;;;;;;;;;;;5183696;27;19936;-88
2024/04/12 17:16:38;;;;;;;;;;;;;;;;;;5180715;27;19940;-85
2024/04/12 17:19:07;;;;;;;;;;;;;;;;;;5183167;27;19960;-85
2024/04/12 17:21:33;;;;;;;;;;;;;;;;;;5187048;27;19928;-87
2024/04/12 17:23:58;;;;;;;;;;;;;;;;;;5180730;27;19940;-87
2024/04/12 17:26:26;;;;;;;;;;;;;;;;;;5186943;27;20368;-86
2024/04/12 17:28:52;;;;;;;;;;;;;;;;;;5181117;27;19928;-87
2024/04/12 17:31:18;;;;;;;;;;;;;;;;;;5182579;27;19929;-87
2024/04/12 17:33:43;;;;;;;;;;;;;;;;;;5182161;27;19928;-88
2024/04/12 17:36:09;;;;;;;;;;;;;;;;;;5185000;27;19977;-87
2024/04/12 17:38:39;;;;;;;;;;;;;;;;;;5181883;27;19929;-87
2024/04/12 17:41:04;;;;;;;;;;;;;;;;;;5189693;27;19929;-88
2024/04/12 17:43:29;;;;;;;;;;;;;;;;;;5190582;27;19929;-87
2024/04/12 17:45:55;;;;;;;;;;;;;;;;;;5181487;27;20391;-88
2024/04/12 17:48:21;;;;;;;;;;;;;;;;;;5182375;27;19929;-88
2024/04/12 17:50:55;;;;;;;;;;;;;;;;;;5181722;27;19935;-87
2024/04/12 17:53:21;;;;;;;;;;;;;;;;;;5181083;27;19928;-88
2024/04/12 17:55:47;;;;;;;;;;;;;;;;;;5179024;27;19932;-88
2024/04/12 17:58:12;;;;;;;;;;;;;;;;;;5181352;27;20375;-87
2024/04/12 18:00:38;;;;;;;;;;;;;;;;;;5212484;27;19928;-87
2024/04/12 18:03:03;;;;;;;;;;;;;;;;;;5213716;27;19928;-88
2024/04/12 18:05:28;;;;;;;;;;;;;;;;;;5213836;27;19940;-86
2024/04/12 18:07:55;;;;;;;;;;;;;;;;;;5214028;27;19928;-86
2024/04/12 18:10:20;;;;;;;;;;;;;;;;;;5184593;27;20319;-86
2024/04/12 18:12:45;;;;;;;;;;;;;;;;;;5214072;27;19940;-86
2024/04/12 18:15:11;;;;;;;;;;;;;;;;;;5213632;27;19928;-86
2024/04/12 18:17:36;;;;;;;;;;;;;;;;;;5213792;27;20037;-86
2024/04/12 18:20:02;;;;;;;;;;;;;;;;;;5184381;27;19960;-86
2024/04/12 18:22:27;;;;;;;;;;;;;;;;;;5213686;27;19935;-86
2024/04/12 18:24:53;;;;;;;;;;;;;;;;;;5183728;27;19928;-87
2024/04/12 18:27:18;;;;;;;;;;;;;;;;;;5184051;27;20367;-86
2024/04/12 18:29:46;;;;;;;;;;;;;;;;;;5212716;27;19935;-88
2024/04/12 18:32:13;;;;;;;;;;;;;;;;;;5213442;27;19928;-88
2024/04/12 18:34:38;;;;;;;;;;;;;;;;;;5213989;27;19928;-91
2024/04/12 18:45:18;;;;;;;;;;;;;;;;;;5214028;27;19939;-90
2024/04/12 18:47:43;;;;;;;;;;;;;;;;;;5185167;27;19928;-91
2024/04/12 18:50:09;;;;;;;;;;;;;;;;;;5213942;27;19928;-90
2024/04/12 18:52:35;;;;;;;;;;;;;;;;;;5184782;27;19929;-91
2024/04/12 18:55:00;;;;;;;;;;;;;;;;;;5184745;27;19936;-90
2024/04/12 18:57:26;;;;;;;;;;;;;;;;;;5184841;27;19999;-91
2024/04/12 18:59:53;;;;;;;;;;;;;;;;;;5213600;27;19928;-91
2024/04/12 19:02:18;;;;;;;;;;;;;;;;;;5184860;27;19928;-91
2024/04/12 19:04:44;;;;;;;;;;;;;;;;;;5213735;27;19934;-92
2024/04/12 19:07:09;;;;;;;;;;;;;;;;;;5185182;27;19928;-92
2024/04/12 19:11:33;;;;;;;;;;;;;;;;;;5503302;25;20358;-92
2024/04/12 19:13:58;;;;;;;;;;;;;;;;;;5472596;26;19933;-92
2024/04/12 19:16:25;;;;;;;;;;;;;;;;;;5442884;26;19998;-91
2024/04/12 19:18:51;;;;;;;;;;;;;;;;;;5437710;26;19952;-91
2024/04/12 19:21:16;;;;;;;;;;;;;;;;;;5435843;26;19936;-91
2024/04/12 19:23:42;;;;;;;;;;;;;;;;;;5435129;26;19933;-91
2024/04/12 19:26:07;;;;;;;;;;;;;;;;;;5435431;26;20248;-91
2024/04/12 19:28:32;;;;;;;;;;;;;;;;;;5435522;26;19933;-91
2024/04/12 19:31:01;;;;;;;;;;;;;;;;;;5437505;26;19940;-91
2024/04/12 19:33:27;;;;;;;;;;;;;;;;;;5435536;26;19929;-92
2024/04/12 19:35:56;;;;;;;;;;;;;;;;;;5435466;26;19936;-91
2024/04/12 19:38:21;;;;;;;;;;;;;;;;;;5435280;26;19965;-90
2024/04/12 19:40:56;;;;;;;;;;;;;;;;;;5435369;26;20367;-91
2024/04/12 19:43:21;;;;;;;;;;;;;;;;;;5435540;26;19929;-91
2024/04/12 19:45:46;;;;;;;;;;;;;;;;;;5434889;26;20436;-91
2024/04/12 19:48:12;;;;;;;;;;;;;;;;;;5435425;26;19998;-92
2024/04/12 19:50:38;;;;;;;;;;;;;;;;;;5435412;26;19994;-91
2024/04/12 19:53:04;;;;;;;;;;;;;;;;;;5435497;26;20370;-91
2024/04/12 19:55:29;;;;;;;;;;;;;;;;;;5435726;26;19929;-92
2024/04/12 19:57:56;;;;;;;;;;;;;;;;;;5434435;26;19998;-91
2024/04/12 20:00:22;;;;;;;;;;;;;;;;;;5427810;26;19936;-90
2024/04/12 20:02:47;;;;;;;;;;;;;;;;;;5434545;26;19929;-90
2024/04/12 20:05:12;;;;;;;;;;;;;;;;;;5434592;26;19961;-90
2024/04/12 20:07:38;;;;;;;;;;;;;;;;;;5434799;26;19929;-90
2024/04/12 20:10:04;;;;;;;;;;;;;;;;;;5434561;26;19997;-90
2024/04/12 20:12:29;;;;;;;;;;;;;;;;;;5434623;26;19998;-90
2024/04/12 20:14:55;;;;;;;;;;;;;;;;;;5434435;26;19936;-90
2024/04/12 20:17:21;;;;;;;;;;;;;;;;;;5434303;26;19929;-90
2024/04/12 20:19:52;;;;;;;;;;;;;;;;;;5436356;26;19997;-89
2024/04/12 20:22:22;;;;;;;;;;;;;;;;;;5423149;26;19933;-90
2024/04/12 20:24:48;;;;;;;;;;;;;;;;;;5420926;26;19940;-90
2024/04/12 20:27:16;;;;;;;;;;;;;;;;;;5418961;26;19937;-90
2024/04/12 20:29:54;;;;;;;;;;;;;;;;;;5420895;26;19999;-90
2024/04/12 20:32:23;;;;;;;;;;;;;;;;;;5419003;26;19940;-89
2024/04/12 20:37:52;;;;;;;;;;;;;;;;;;5382121;26;19945;-90
2024/04/12 20:40:17;;;;;;;;;;;;;;;;;;5403836;26;19929;-90
2024/04/12 20:42:43;;;;;;;;;;;;;;;;;;5419192;26;19955;-90
2024/04/12 20:45:08;;;;;;;;;;;;;;;;;;5418545;26;20309;-88
2024/04/12 20:47:33;;;;;;;;;;;;;;;;;;5418772;26;19940;-89
2024/04/12 20:49:59;;;;;;;;;;;;;;;;;;5420322;26;19929;-89
2024/04/12 20:52:24;;;;;;;;;;;;;;;;;;5418756;26;19929;-91
2024/04/12 20:54:49;;;;;;;;;;;;;;;;;;5418980;26;20297;-90
2024/04/12 20:57:17;;;;;;;;;;;;;;;;;;5418842;26;19939;-89
2024/04/12 20:59:43;;;;;;;;;;;;;;;;;;5418545;26;20013;-89
2024/04/12 21:02:08;;;;;;;;;;;;;;;;;;5418482;26;20334;-90
2024/04/12 21:04:34;;;;;;;;;;;;;;;;;;5418519;26;20429;-91
2024/04/12 21:06:59;;;;;;;;;;;;;;;;;;5418451;26;20255;-90
2024/04/12 21:09:24;;;;;;;;;;;;;;;;;;5418262;26;19977;-90
2024/04/12 21:11:51;;;;;;;;;;;;;;;;;;5418662;26;19937;-90
2024/04/12 21:14:16;;;;;;;;;;;;;;;;;;5418515;26;19940;-90
2024/04/12 21:16:42;;;;;;;;;;;;;;;;;;5418273;26;19937;-89
2024/04/12 21:19:08;;;;;;;;;;;;;;;;;;5418542;26;19937;-90
2024/04/12 21:21:33;;;;;;;;;;;;;;;;;;5418577;26;19933;-91
2024/04/12 21:24:00;;;;;;;;;;;;;;;;;;5417804;26;19941;-91
2024/04/12 21:26:25;;;;;;;;;;;;;;;;;;5418318;26;19936;-91
2024/04/12 21:28:51;;;;;;;;;;;;;;;;;;5418252;26;19937;-91
2024/04/12 21:31:16;;;;;;;;;;;;;;;;;;5418089;26;20263;-92
2024/04/12 21:33:42;;;;;;;;;;;;;;;;;;5418426;26;19928;-90
2024/04/12 21:36:07;;;;;;;;;;;;;;;;;;5418470;26;20002;-92
2024/04/12 21:38:39;;;;;;;;;;;;;;;;;;5388687;26;19932;-90
2024/04/12 21:41:06;;;;;;;;;;;;;;;;;;5417766;26;19937;-90
2024/04/12 21:43:35;;;;;;;;;;;;;;;;;;5417411;26;19936;-90
2024/04/12 21:46:03;;;;;;;;;;;;;;;;;;5419209;26;19936;-91
2024/04/12 21:48:30;;;;;;;;;;;;;;;;;;5417988;26;19929;-93
